createdAt,value
2019-04-05T00:00:17.430Z,5.80
2019-04-05T00:02:46.786Z,5.80
2019-04-05T00:05:16.654Z,5.80
2019-04-05T00:07:46.014Z,5.80
2019-04-05T00:10:15.568Z,5.80
2019-04-05T00:12:44.942Z,5.80
2019-04-05T00:15:15.867Z,5.70
2019-04-05T00:17:45.363Z,5.70
2019-04-05T00:20:16.212Z,5.80
2019-04-05T00:22:45.592Z,5.80
2019-04-05T00:25:14.933Z,5.80
2019-04-05T00:27:44.297Z,5.80
2019-04-05T00:30:14.449Z,5.80
2019-04-05T00:32:43.886Z,5.80
2019-04-05T00:35:13.235Z,5.80
2019-04-05T00:37:42.590Z,5.80
2019-04-05T00:40:12.230Z,5.80
2019-04-05T00:42:41.603Z,5.80
2019-04-05T00:45:11.751Z,5.80
2019-04-05T00:47:41.120Z,5.80
2019-04-05T00:50:10.871Z,5.80
2019-04-05T00:52:40.237Z,5.80
2019-04-05T00:55:10.393Z,5.90
2019-04-05T00:57:39.753Z,5.90
2019-04-05T01:00:09.563Z,5.80
2019-04-05T01:02:38.870Z,5.90
2019-04-05T01:05:08.315Z,5.90
2019-04-05T01:07:37.678Z,5.90
2019-04-05T01:10:08.285Z,5.90
2019-04-05T01:12:39.669Z,5.90
2019-04-05T01:15:10.751Z,5.80
2019-04-05T01:17:40.453Z,5.90
2019-04-05T01:20:10.632Z,5.80
2019-04-05T01:22:41.570Z,5.90
2019-04-05T01:25:12.028Z,5.90
2019-04-05T01:27:41.790Z,5.90
2019-04-05T01:30:13.443Z,5.90
2019-04-05T01:32:42.867Z,5.90
2019-04-05T01:35:12.224Z,5.90
2019-04-05T01:37:41.700Z,5.90
2019-04-05T01:40:11.443Z,5.90
2019-04-05T01:42:40.993Z,5.90
2019-04-05T01:45:10.555Z,5.90
2019-04-05T01:47:40.597Z,5.90
2019-04-05T01:50:10.755Z,5.90
2019-04-05T01:52:40.148Z,5.90
2019-04-05T01:55:09.627Z,5.90
2019-04-05T01:57:38.975Z,5.90
2019-04-05T02:00:10.004Z,5.90
2019-04-05T02:02:39.378Z,6.00
2019-04-05T02:05:09.573Z,6.00
2019-04-05T02:07:39.080Z,5.90
2019-04-05T02:10:09.103Z,5.90
2019-04-05T02:12:38.728Z,6.00
2019-04-05T02:15:09.923Z,6.00
2019-04-05T02:17:39.368Z,6.00
2019-04-05T02:20:09.859Z,6.00
2019-04-05T02:22:39.200Z,6.00
2019-04-05T02:25:08.684Z,6.00
2019-04-05T02:27:38.023Z,6.00
2019-04-05T02:30:07.834Z,6.10
2019-04-05T02:32:37.205Z,6.10
2019-04-05T02:35:07.115Z,6.10
2019-04-05T02:37:36.507Z,6.10
2019-04-05T02:40:09.535Z,6.10
2019-04-05T02:42:39.103Z,6.10
2019-04-05T02:45:09.689Z,6.10
2019-04-05T02:47:41.660Z,6.10
2019-04-05T02:50:12.535Z,6.10
2019-04-05T02:52:44.229Z,6.10
2019-04-05T02:55:14.292Z,6.10
2019-04-05T02:57:45.511Z,6.10
2019-04-05T03:00:14.887Z,6.10
2019-04-05T03:02:44.630Z,6.10
2019-04-05T03:05:13.998Z,6.10
2019-04-05T03:07:43.348Z,6.10
2019-04-05T03:10:37.083Z,6.00
2019-04-05T03:13:06.422Z,6.00
2019-04-05T03:15:35.800Z,6.00
2019-04-05T03:18:05.236Z,6.00
2019-04-05T03:20:34.599Z,6.00
2019-04-05T03:23:03.957Z,6.00
2019-04-05T03:25:33.716Z,6.00
2019-04-05T03:28:03.528Z,6.00
2019-04-05T03:30:32.903Z,6.00
2019-04-05T03:33:02.499Z,6.00
2019-04-05T03:35:31.854Z,6.10
2019-04-05T03:38:01.324Z,6.10
2019-04-05T03:40:30.983Z,6.10
2019-04-05T03:43:00.432Z,6.10
2019-04-05T03:45:29.829Z,6.00
2019-04-05T03:47:59.479Z,6.00
2019-04-05T03:50:28.852Z,6.10
2019-04-05T03:52:58.496Z,6.10
2019-04-05T03:55:27.866Z,6.00
2019-04-05T03:57:57.332Z,6.00
2019-04-05T04:00:26.803Z,6.10
2019-04-05T04:02:56.144Z,6.10
2019-04-05T04:05:25.520Z,6.10
2019-04-05T04:07:54.934Z,6.20
2019-04-05T04:10:27.253Z,6.20
2019-04-05T04:12:56.912Z,6.10
2019-04-05T04:15:26.951Z,6.10
2019-04-05T04:17:57.513Z,6.10
2019-04-05T04:20:37.282Z,6.10
2019-04-05T04:23:07.937Z,6.10
2019-04-05T04:25:39.267Z,6.10
2019-04-05T04:28:08.969Z,6.10
2019-04-05T04:30:38.494Z,6.10
2019-04-05T04:33:07.908Z,6.10
2019-04-05T04:35:37.999Z,6.10
2019-04-05T04:38:07.600Z,6.00
2019-04-05T04:40:37.615Z,6.00
2019-04-05T04:43:07.160Z,6.00
2019-04-05T04:45:36.711Z,6.00
2019-04-05T04:48:06.780Z,6.00
2019-04-05T04:50:36.530Z,6.10
2019-04-05T04:53:06.016Z,6.10
2019-04-05T04:55:36.444Z,6.10
2019-04-05T04:58:05.968Z,6.10
2019-04-05T05:00:35.819Z,6.10
2019-04-05T05:03:05.487Z,6.00
2019-04-05T05:05:35.149Z,6.00
2019-04-05T05:08:04.859Z,6.00
2019-04-05T05:10:34.394Z,6.00
2019-04-05T05:13:03.775Z,6.00
2019-04-05T05:15:33.221Z,6.00
2019-04-05T05:18:02.935Z,6.00
2019-04-05T05:20:32.596Z,6.00
2019-04-05T05:23:01.960Z,6.00
2019-04-05T05:25:31.357Z,6.00
2019-04-05T05:28:01.033Z,6.00
2019-04-05T05:30:30.896Z,6.00
2019-04-05T05:33:00.291Z,6.00
2019-04-05T05:35:29.853Z,6.00
2019-04-05T05:37:59.218Z,6.00
2019-04-05T05:40:34.694Z,5.90
2019-04-05T05:42:59.723Z,6.00
2019-04-05T05:45:29.072Z,6.00
2019-04-05T05:47:58.647Z,6.00
2019-04-05T05:50:27.997Z,6.00
2019-04-05T05:52:57.370Z,6.10
2019-04-05T05:55:29.824Z,6.10
2019-04-05T05:57:58.728Z,6.10
2019-04-05T06:00:30.458Z,6.10
2019-04-05T06:02:59.414Z,6.20
2019-04-05T06:05:28.763Z,6.10
2019-04-05T06:07:58.730Z,6.10
2019-04-05T06:10:29.130Z,6.10
2019-04-05T06:12:58.998Z,6.10
2019-04-05T06:15:28.359Z,6.10
2019-04-05T06:18:04.530Z,6.10
2019-04-05T06:20:28.749Z,6.10
2019-04-05T06:22:58.124Z,6.10
2019-04-05T06:25:27.473Z,6.10
2019-04-05T06:27:59.675Z,6.20
2019-04-05T06:30:30.490Z,6.20
2019-04-05T06:32:58.897Z,6.20
2019-04-05T06:35:28.238Z,6.20
2019-04-05T06:37:57.615Z,6.30
2019-04-05T06:40:39.763Z,6.30
2019-04-05T06:42:58.614Z,6.30
2019-04-05T06:45:27.972Z,6.30
2019-04-05T06:47:57.350Z,6.40
2019-04-05T06:50:26.702Z,6.40
2019-04-05T06:52:56.079Z,6.50
2019-04-05T06:55:25.426Z,6.50
2019-04-05T06:57:54.813Z,6.50
2019-04-05T07:00:30.603Z,6.60
2019-04-05T07:03:00.234Z,6.60
2019-04-05T07:05:29.595Z,6.70
2019-04-05T07:07:58.975Z,6.70
2019-04-05T07:10:28.344Z,6.70
2019-04-05T07:12:57.817Z,6.70
2019-04-05T07:15:27.271Z,6.80
2019-04-05T07:17:56.660Z,6.80
2019-04-05T07:20:26.020Z,6.80
2019-04-05T07:22:55.383Z,6.80
2019-04-05T07:25:24.743Z,6.90
2019-04-05T07:27:54.119Z,6.90
2019-04-05T07:30:23.771Z,6.90
2019-04-05T07:32:53.163Z,7.00
2019-04-05T07:35:32.884Z,7.00
2019-04-05T07:37:53.752Z,7.10
2019-04-05T07:40:23.103Z,7.10
2019-04-05T07:42:52.527Z,7.10
2019-04-05T07:45:21.882Z,7.20
2019-04-05T07:47:51.255Z,7.30
2019-04-05T07:50:20.611Z,7.30
2019-04-05T07:52:49.995Z,7.40
2019-04-05T07:55:19.335Z,7.50
2019-04-05T07:57:48.683Z,7.60
2019-04-05T08:00:54.034Z,7.60
2019-04-05T08:03:24.328Z,7.50
2019-04-05T08:05:54.076Z,7.50
2019-04-05T08:08:32.370Z,7.50
2019-04-05T08:11:01.815Z,7.40
2019-04-05T08:13:31.891Z,7.40
2019-04-05T08:16:01.470Z,7.40
2019-04-05T08:18:30.923Z,7.40
2019-04-05T08:21:00.263Z,7.50
2019-04-05T08:23:29.641Z,7.50
2019-04-05T08:25:58.995Z,7.50
2019-04-05T08:28:29.806Z,7.50
2019-04-05T08:30:59.313Z,7.60
2019-04-05T08:33:28.690Z,7.60
2019-04-05T08:35:58.047Z,7.60
2019-04-05T08:38:27.398Z,7.60
2019-04-05T08:40:56.780Z,7.70
2019-04-05T08:43:26.121Z,7.70
2019-04-05T08:45:55.485Z,7.70
2019-04-05T08:48:24.828Z,7.70
2019-04-05T08:50:54.195Z,7.70
2019-04-05T08:53:23.543Z,7.90
2019-04-05T08:55:52.911Z,7.80
2019-04-05T08:58:32.823Z,7.80
2019-04-05T09:00:53.286Z,7.70
2019-04-05T09:03:22.643Z,7.80
2019-04-05T09:05:52.036Z,7.90
2019-04-05T09:08:21.618Z,8.00
2019-04-05T09:10:50.971Z,8.10
2019-04-05T09:13:20.299Z,8.10
2019-04-05T09:15:49.678Z,8.20
2019-04-05T09:18:19.035Z,8.10
2019-04-05T09:20:48.400Z,8.00
2019-04-05T09:23:17.759Z,8.00
2019-04-05T09:25:47.127Z,8.00
2019-04-05T09:28:16.484Z,8.10
2019-04-05T09:30:45.909Z,8.10
2019-04-05T09:33:15.558Z,8.10
2019-04-05T09:35:44.943Z,8.20
2019-04-05T09:38:14.300Z,8.10
2019-04-05T09:40:44.059Z,8.10
2019-04-05T09:43:13.407Z,8.10
2019-04-05T09:45:42.783Z,8.10
2019-04-05T09:48:12.143Z,8.20
2019-04-05T09:50:41.519Z,8.20
2019-04-05T09:53:10.872Z,8.30
2019-04-05T09:55:40.244Z,8.30
2019-04-05T09:58:10.217Z,8.30
2019-04-05T10:00:39.983Z,8.30
2019-04-05T10:03:09.342Z,8.20
2019-04-05T10:05:38.703Z,8.20
2019-04-05T10:08:08.074Z,8.20
2019-04-05T10:10:37.435Z,8.20
2019-04-05T10:13:09.632Z,8.20
2019-04-05T10:15:37.807Z,8.30
2019-04-05T10:18:07.183Z,8.30
2019-04-05T10:20:38.904Z,8.30
2019-04-05T10:23:07.561Z,8.40
2019-04-05T10:25:37.219Z,8.50
2019-04-05T10:28:06.687Z,8.60
2019-04-05T10:30:36.008Z,8.70
2019-04-05T10:33:05.395Z,8.80
2019-04-05T10:35:34.770Z,8.90
2019-04-05T10:38:04.159Z,8.90
2019-04-05T10:40:34.380Z,8.90
2019-04-05T10:43:03.763Z,8.90
2019-04-05T10:45:33.111Z,8.90
2019-04-05T10:48:02.475Z,8.80
2019-04-05T10:50:31.823Z,8.80
2019-04-05T10:53:01.201Z,8.90
2019-04-05T10:55:30.551Z,9.10
2019-04-05T10:58:00.395Z,9.20
2019-04-05T11:00:29.885Z,9.30
2019-04-05T11:02:59.247Z,9.30
2019-04-05T11:05:28.608Z,9.40
2019-04-05T11:07:57.967Z,9.40
2019-04-05T11:10:27.323Z,9.40
2019-04-05T11:12:56.967Z,9.30
2019-04-05T11:15:26.415Z,9.30
2019-04-05T11:17:55.795Z,9.20
2019-04-05T11:20:25.139Z,9.20
2019-04-05T11:22:54.516Z,9.20
2019-04-05T11:25:23.868Z,9.20
2019-04-05T11:27:53.246Z,9.20
2019-04-05T11:30:39.806Z,9.30
2019-04-05T11:33:09.217Z,9.20
2019-04-05T11:35:38.880Z,9.10
2019-04-05T11:38:08.355Z,9.10
2019-04-05T11:40:37.711Z,9.10
2019-04-05T11:43:07.095Z,9.10
2019-04-05T11:45:36.451Z,9.20
2019-04-05T11:48:06.739Z,9.30
2019-04-05T11:50:36.182Z,9.30
2019-04-05T11:53:05.668Z,9.30
2019-04-05T11:55:35.138Z,9.30
2019-04-05T11:58:04.636Z,9.40
2019-04-05T12:00:59.095Z,9.40
2019-04-05T12:03:29.027Z,9.50
2019-04-05T12:05:58.375Z,9.50
2019-04-05T12:08:27.767Z,9.40
2019-04-05T12:10:57.122Z,9.40
2019-04-05T12:13:26.467Z,9.30
2019-04-05T12:15:58.117Z,9.30
2019-04-05T12:18:26.854Z,9.50
2019-04-05T12:21:00.230Z,9.70
2019-04-05T12:23:27.247Z,9.80
2019-04-05T12:25:56.619Z,9.90
2019-04-05T12:28:25.979Z,9.90
2019-04-05T12:30:55.350Z,10.10
2019-04-05T12:33:24.731Z,10.10
2019-04-05T12:35:56.696Z,10.10
2019-04-05T12:38:32.502Z,10.10
2019-04-05T12:41:03.966Z,10.20
2019-04-05T12:43:33.602Z,10.20
2019-04-05T12:46:03.678Z,10.30
2019-04-05T12:48:33.038Z,10.50
2019-04-05T12:51:05.248Z,10.70
2019-04-05T12:53:33.441Z,10.60
2019-04-05T12:56:02.822Z,10.70
2019-04-05T12:58:32.928Z,10.70
2019-04-05T13:01:02.361Z,10.70
2019-04-05T13:03:31.761Z,10.70
2019-04-05T13:06:01.096Z,10.70
2019-04-05T13:08:30.447Z,10.70
2019-04-05T13:10:59.883Z,10.70
2019-04-05T13:13:29.228Z,10.60
2019-04-05T13:15:59.441Z,10.50
2019-04-05T13:18:31.608Z,10.50
2019-04-05T13:21:00.325Z,10.50
2019-04-05T13:23:30.435Z,10.50
2019-04-05T13:25:59.816Z,10.30
2019-04-05T13:28:29.172Z,10.30
2019-04-05T13:30:58.551Z,10.30
2019-04-05T13:33:29.058Z,10.30
2019-04-05T13:35:58.631Z,10.30
2019-04-05T13:38:29.806Z,10.30
2019-04-05T13:41:01.258Z,10.30
2019-04-05T13:43:31.868Z,10.20
2019-04-05T13:46:01.034Z,10.10
2019-04-05T13:48:30.391Z,10.00
2019-04-05T13:50:59.815Z,10.00
2019-04-05T13:53:29.163Z,9.90
2019-04-05T13:55:58.538Z,9.90
2019-04-05T13:58:27.911Z,9.70
2019-04-05T14:00:57.296Z,9.70
2019-04-05T14:03:26.648Z,9.70
2019-04-05T14:05:56.019Z,9.80
2019-04-05T14:08:25.574Z,9.70
2019-04-05T14:10:54.955Z,9.80
2019-04-05T14:13:24.309Z,9.80
2019-04-05T14:15:53.805Z,9.90
2019-04-05T14:18:23.227Z,9.90
2019-04-05T14:20:52.627Z,9.90
2019-04-05T14:23:23.926Z,10.00
2019-04-05T14:25:53.015Z,10.00
2019-04-05T14:28:22.363Z,10.00
2019-04-05T14:30:51.740Z,10.10
2019-04-05T14:33:24.374Z,10.10
2019-04-05T14:35:52.554Z,10.10
2019-04-05T14:38:23.294Z,10.10
2019-04-05T14:40:53.131Z,10.00
2019-04-05T14:43:22.480Z,9.90
2019-04-05T14:45:51.854Z,9.90
2019-04-05T14:48:21.207Z,9.90
2019-04-05T14:50:50.578Z,9.90
2019-04-05T14:53:19.927Z,9.80
2019-04-05T14:55:49.295Z,9.80
2019-04-05T14:58:19.405Z,9.80
2019-04-05T15:00:48.942Z,9.70
2019-04-05T15:03:18.294Z,9.70
2019-04-05T15:05:47.668Z,9.70
2019-04-05T15:08:20.348Z,9.70
2019-04-05T15:10:49.034Z,9.70
2019-04-05T15:13:19.143Z,9.80
2019-04-05T15:15:48.511Z,9.80
2019-04-05T15:18:19.622Z,9.90
2019-04-05T15:20:48.973Z,9.90
2019-04-05T15:23:18.327Z,10.00
2019-04-05T15:25:49.912Z,9.90
2019-04-05T15:28:18.823Z,9.90
2019-04-05T15:30:49.665Z,9.90
2019-04-05T15:33:19.164Z,9.80
2019-04-05T15:35:48.567Z,9.80
2019-04-05T15:38:17.919Z,9.80
2019-04-05T15:40:47.266Z,9.80
2019-04-05T15:43:16.648Z,9.70
2019-04-05T15:45:45.989Z,9.70
2019-04-05T15:48:15.368Z,9.80
2019-04-05T15:50:44.712Z,9.80
2019-04-05T15:53:14.082Z,9.90
2019-04-05T15:55:43.427Z,9.90
2019-04-05T15:58:12.941Z,9.90
2019-04-05T16:00:43.799Z,9.90
2019-04-05T16:03:14.361Z,9.90
2019-04-05T16:05:44.515Z,9.90
2019-04-05T16:08:15.864Z,9.90
2019-04-05T16:10:45.718Z,10.00
2019-04-05T16:13:15.095Z,10.00
2019-04-05T16:15:44.443Z,10.00
2019-04-05T16:18:13.811Z,10.00
2019-04-05T16:20:43.171Z,10.00
2019-04-05T16:23:12.545Z,9.90
2019-04-05T16:25:41.900Z,9.90
2019-04-05T16:28:11.276Z,9.90
2019-04-05T16:30:40.690Z,9.90
2019-04-05T16:33:10.083Z,9.90
2019-04-05T16:35:39.371Z,9.80
2019-04-05T16:38:08.739Z,9.90
2019-04-05T16:40:38.092Z,9.80
2019-04-05T16:43:07.455Z,9.80
2019-04-05T16:45:38.546Z,9.90
2019-04-05T16:48:07.831Z,9.90
2019-04-05T16:50:37.191Z,9.80
2019-04-05T16:53:06.559Z,9.70
2019-04-05T16:55:35.915Z,9.70
2019-04-05T16:58:05.284Z,9.70
2019-04-05T17:00:34.631Z,9.60
2019-04-05T17:03:04.004Z,9.50
2019-04-05T17:05:33.656Z,9.50
2019-04-05T17:08:03.032Z,9.50
2019-04-05T17:10:32.377Z,9.40
2019-04-05T17:13:01.748Z,9.40
2019-04-05T17:15:31.099Z,9.30
2019-04-05T17:18:00.474Z,9.20
2019-04-05T17:20:29.891Z,9.20
2019-04-05T17:22:59.255Z,9.10
2019-04-05T17:25:28.615Z,9.10
2019-04-05T17:27:58.189Z,9.00
2019-04-05T17:30:27.533Z,9.00
2019-04-05T17:32:56.954Z,8.90
2019-04-05T17:35:26.315Z,8.80
2019-04-05T17:37:55.688Z,8.80
2019-04-05T17:40:25.034Z,8.70
2019-04-05T17:42:54.403Z,8.60
2019-04-05T17:45:23.753Z,8.40
2019-04-05T17:47:53.123Z,8.30
2019-04-05T17:50:31.490Z,8.10
2019-04-05T17:53:11.327Z,8.00
2019-04-05T17:55:31.859Z,7.90
2019-04-05T17:58:03.260Z,7.80
2019-04-05T18:00:32.615Z,7.70
2019-04-05T18:03:01.987Z,7.50
2019-04-05T18:05:31.348Z,7.40
2019-04-05T18:08:00.713Z,7.30
2019-04-05T18:10:30.072Z,7.30
2019-04-05T18:12:59.439Z,7.20
2019-04-05T18:15:28.854Z,7.30
2019-04-05T18:17:58.223Z,7.30
2019-04-05T18:20:27.591Z,7.30
2019-04-05T18:22:56.955Z,7.30
2019-04-05T18:25:26.315Z,7.40
2019-04-05T18:27:55.687Z,7.40
2019-04-05T18:30:25.035Z,7.40
2019-04-05T18:32:54.464Z,7.40
2019-04-05T18:35:23.823Z,7.40
2019-04-05T18:37:53.238Z,7.40
2019-04-05T18:40:22.584Z,7.40
2019-04-05T18:42:51.953Z,7.40
2019-04-05T18:45:21.302Z,7.40
2019-04-05T18:47:50.682Z,7.40
2019-04-05T18:50:20.028Z,7.50
2019-04-05T18:52:49.389Z,7.50
2019-04-05T18:55:18.755Z,7.50
2019-04-05T18:57:48.103Z,7.60
2019-04-05T19:00:17.474Z,7.60
2019-04-05T19:02:46.820Z,7.70
2019-04-05T19:05:16.293Z,7.70
2019-04-05T19:07:45.675Z,7.70
2019-04-05T19:10:15.152Z,7.70
2019-04-05T19:12:44.584Z,7.70
2019-04-05T19:15:14.371Z,7.70
2019-04-05T19:17:43.718Z,7.70
2019-04-05T19:20:13.191Z,7.60
2019-04-05T19:22:42.547Z,7.60
2019-04-05T19:25:12.159Z,7.60
2019-04-05T19:27:41.515Z,7.50
2019-04-05T19:50:19.518Z,7.70
2019-04-05T19:52:48.858Z,7.70
2019-04-05T19:55:18.223Z,7.70
2019-04-05T19:57:47.679Z,7.80
2019-04-05T20:00:17.559Z,7.80
2019-04-05T20:02:47.391Z,7.80
2019-04-05T20:05:16.761Z,7.80
2019-04-05T20:07:46.135Z,7.90
2019-04-05T20:10:15.608Z,7.90
2019-04-05T20:12:45.049Z,7.80
2019-04-05T20:15:14.778Z,7.80
2019-04-05T20:17:44.254Z,7.90
2019-04-05T20:20:13.772Z,7.80
2019-04-05T20:22:43.256Z,7.80
2019-04-05T20:25:12.950Z,7.80
2019-04-05T20:27:42.424Z,7.80
2019-04-05T20:30:12.299Z,7.80
2019-04-05T20:32:41.816Z,7.80
2019-04-05T20:35:11.240Z,7.80
2019-04-05T20:37:40.569Z,7.90
2019-04-05T20:40:10.163Z,7.90
2019-04-05T20:42:40.116Z,7.90
2019-04-05T20:45:09.550Z,7.90
2019-04-05T20:47:38.822Z,7.90
2019-04-05T20:50:08.506Z,7.90
2019-04-05T20:52:37.991Z,8.00
2019-04-05T20:55:08.047Z,7.90
2019-04-05T20:57:37.516Z,7.90
2019-04-05T21:00:08.731Z,7.90
2019-04-05T21:02:38.147Z,7.90
2019-04-05T21:05:07.718Z,8.00
2019-04-05T21:07:37.107Z,8.00
2019-04-05T21:10:07.623Z,8.00
2019-04-05T21:12:37.125Z,8.00
2019-04-05T21:15:06.679Z,8.00
2019-04-05T21:17:36.091Z,8.00
2019-04-05T21:20:06.538Z,8.00
2019-04-05T21:22:36.454Z,8.00
2019-04-05T21:25:06.465Z,8.00
2019-04-05T21:27:35.820Z,8.00
2019-04-05T21:30:05.915Z,8.10
2019-04-05T21:32:35.296Z,8.00
2019-04-05T21:35:05.082Z,8.00
2019-04-05T21:37:34.448Z,8.00
2019-04-05T21:40:04.064Z,8.00
2019-04-05T21:42:33.403Z,8.00
2019-04-05T21:45:02.771Z,8.00
2019-04-05T21:47:32.128Z,7.90
2019-04-05T21:50:01.495Z,7.90
2019-04-05T21:52:30.906Z,8.00
2019-04-05T21:55:00.219Z,8.00
2019-04-05T21:57:29.562Z,8.00
2019-04-05T21:59:58.927Z,8.00
2019-04-05T22:02:28.275Z,8.00
2019-04-05T22:04:57.724Z,8.00
2019-04-05T22:07:27.079Z,8.00
2019-04-05T22:09:56.506Z,8.00
2019-04-05T22:12:25.853Z,8.00
2019-04-05T22:14:55.191Z,8.00
2019-04-05T22:17:24.563Z,8.00
2019-04-05T22:19:53.906Z,8.00
2019-04-05T22:22:23.279Z,8.00
2019-04-05T22:24:59.066Z,8.00
2019-04-05T22:27:23.647Z,8.10
2019-04-05T22:29:52.982Z,8.10
2019-04-05T22:32:22.389Z,8.10
2019-04-05T22:34:51.726Z,8.10
2019-04-05T22:37:21.108Z,8.10
2019-04-05T22:39:50.454Z,8.10
2019-04-05T22:42:19.814Z,8.10
2019-04-05T22:44:49.162Z,8.10
2019-04-05T22:47:18.584Z,8.10
2019-04-05T22:49:47.934Z,8.10
2019-04-05T22:52:17.298Z,8.10
2019-04-05T22:54:46.643Z,8.10
2019-04-05T22:57:16.016Z,8.10
2019-04-05T22:59:45.374Z,8.10
2019-04-05T23:02:14.735Z,8.10
2019-04-05T23:04:44.102Z,8.10
2019-04-05T23:07:13.475Z,8.10
2019-04-05T23:09:42.818Z,8.10
2019-04-05T23:12:12.119Z,8.10
2019-04-05T23:14:41.481Z,8.10
2019-04-05T23:17:10.863Z,8.10
2019-04-05T23:19:40.216Z,8.00
2019-04-05T23:22:09.583Z,8.00
2019-04-05T23:24:38.923Z,8.00
2019-04-05T23:27:08.295Z,8.00
2019-04-05T23:29:37.655Z,8.00
2019-04-05T23:32:07.060Z,8.00
2019-04-05T23:34:36.401Z,8.00
2019-04-05T23:37:05.775Z,8.00
2019-04-05T23:39:35.178Z,8.00
2019-04-05T23:42:04.555Z,8.00
2019-04-05T23:44:33.911Z,8.00
2019-04-05T23:47:03.278Z,8.00
2019-04-05T23:49:32.639Z,8.00
2019-04-05T23:52:02.011Z,8.00
2019-04-05T23:54:31.356Z,8.00
2019-04-05T23:57:00.751Z,8.00
2019-04-05T23:59:30.103Z,8.00
